Time;durP1;ratioP1;P1;durP2;ratioP2;P2;SDS_P1;SDS_P2;PMS_P1;PMS_P2;Temp;Humidity;BMP_temperature;BMP_pressure;BME280_temperature;BME280_humidity;BME280_pressure;Samples;Min_cycle;Max_cycle;Signal;HPM_P1;HPM_P2
2021/11/28 00:01:42;;;;;;;19.07;11.20;;;;;;;1.08;100.00;98755.50;5025734;28;20208;-78
2021/11/28 00:04:13;;;;;;;17.10;10.77;;;;;;;1.10;100.00;98766.56;5024391;28;20780;-79
2021/11/28 00:06:43;;;;;;;20.37;10.40;;;;;;;1.15;100.00;98777.59;5025148;28;20775;-79
2021/11/28 00:12:10;;;;;;;14.67;9.40;;;;;;;1.18;100.00;98785.28;5027521;28;20200;-79
2021/11/28 00:14:36;;;;;;;14.23;8.40;;;;;;;1.12;100.00;98793.06;5022155;28;20212;-79
2021/11/28 00:17:05;;;;;;;12.90;8.67;;;;;;;1.06;100.00;98788.03;5024676;28;20200;-79
2021/11/28 00:19:33;;;;;;;11.33;7.83;;;;;;;1.02;100.00;98781.25;5021047;28;20548;-79
2021/11/28 00:21:59;;;;;;;12.57;8.30;;;;;;;0.96;100.00;98779.63;5020500;28;20209;-79
2021/11/28 00:24:26;;;;;;;15.77;9.70;;;;;;;0.97;100.00;98777.91;5022134;28;20208;-79
2021/11/28 00:26:52;;;;;;;12.10;8.23;;;;;;;0.92;100.00;98771.16;5026841;28;20219;-79
2021/11/28 00:29:19;;;;;;;12.97;8.30;;;;;;;0.92;100.00;98768.56;5020813;28;20226;-78
2021/11/28 00:31:45;;;;;;;14.50;8.87;;;;;;;0.88;100.00;98769.50;5024780;28;20226;-78
2021/11/28 00:34:13;;;;;;;13.40;8.67;;;;;;;0.90;100.00;98766.91;5023624;28;20842;-79
2021/11/28 00:36:40;;;;;;;14.37;8.77;;;;;;;0.84;100.00;98770.41;5016789;28;20208;-79
2021/11/28 00:39:07;;;;;;;13.03;8.67;;;;;;;0.80;100.00;98770.50;5020494;28;20208;-79
2021/11/28 00:41:34;;;;;;;14.10;8.27;;;;;;;0.79;100.00;98767.06;5019272;28;20206;-78
2021/11/28 00:44:00;;;;;;;12.47;7.87;;;;;;;0.75;100.00;98766.28;5020532;28;20232;-77
2021/11/28 00:46:27;;;;;;;12.40;8.07;;;;;;;0.76;100.00;98759.44;5015910;28;20238;-77
2021/11/28 00:48:53;;;;;;;13.60;8.40;;;;;;;0.77;100.00;98761.13;5036326;28;21647;-78
2021/11/28 00:51:34;;;;;;;11.70;8.20;;;;;;;0.80;100.00;98747.41;5018359;28;20213;-77
2021/11/28 00:54:02;;;;;;;12.77;9.30;;;;;;;0.83;100.00;98744.81;5014420;28;20217;-77
2021/11/28 00:56:29;;;;;;;14.77;9.00;;;;;;;0.77;100.00;98744.88;5018946;28;20207;-77
2021/11/28 00:58:55;;;;;;;15.17;9.10;;;;;;;0.79;100.00;98736.28;5018166;28;20298;-79
2021/11/28 01:01:22;;;;;;;14.10;8.70;;;;;;;0.81;100.00;98728.56;5016855;28;20204;-77
2021/11/28 01:03:48;;;;;;;14.03;8.77;;;;;;;0.70;100.00;98734.75;5017553;28;20782;-77
2021/11/28 01:06:16;;;;;;;19.00;9.60;;;;;;;0.60;100.00;98745.16;5016818;28;20212;-77
2021/11/28 01:08:42;;;;;;;18.10;10.17;;;;;;;0.61;100.00;98751.97;5018763;28;20231;-77
2021/11/28 01:11:10;;;;;;;12.83;8.33;;;;;;;0.50;100.00;98768.38;5022880;28;20208;-76
2021/11/28 01:13:38;;;;;;;13.57;8.57;;;;;;;0.40;100.00;98774.50;5017630;28;20838;-77
2021/11/28 01:16:04;;;;;;;14.57;8.90;;;;;;;0.37;100.00;98792.53;5022932;28;20231;-80
2021/11/28 01:18:32;;;;;;;15.33;9.33;;;;;;;0.36;100.00;98791.66;5024526;28;20210;-79
2021/11/28 01:20:58;;;;;;;13.57;8.87;;;;;;;0.36;100.00;98794.22;5017398;28;20202;-80
2021/11/28 01:23:25;;;;;;;13.97;9.07;;;;;;;0.35;100.00;98794.22;5021528;28;20261;-79
2021/11/28 01:25:52;;;;;;;15.40;9.13;;;;;;;0.33;100.00;98793.41;5021430;28;20227;-80
2021/11/28 01:28:20;;;;;;;13.63;8.83;;;;;;;0.28;100.00;98796.06;5022157;28;20285;-80
2021/11/28 01:30:47;;;;;;;15.00;9.37;;;;;;;0.25;100.00;98797.81;5020363;28;20217;-78
2021/11/28 01:33:14;;;;;;;15.57;9.77;;;;;;;0.26;100.00;98809.75;5021165;28;21104;-78
2021/11/28 01:35:40;;;;;;;14.07;9.30;;;;;;;0.24;100.00;98814.91;5019701;28;20206;-78
2021/11/28 01:38:07;;;;;;;15.80;9.57;;;;;;;0.23;100.00;98818.34;5021527;28;20203;-78
2021/11/28 01:40:35;;;;;;;16.87;9.73;;;;;;;0.23;100.00;98823.47;5022023;28;20836;-77
2021/11/28 01:43:05;;;;;;;15.33;9.67;;;;;;;0.23;100.00;98815.78;5022220;28;20264;-78
2021/11/28 01:45:35;;;;;;;15.27;9.40;;;;;;;0.21;100.00;98819.22;5016926;28;20227;-78
2021/11/28 01:48:06;;;;;;;16.33;9.97;;;;;;;0.25;100.00;98833.72;5014392;28;20308;-78
2021/11/28 01:50:34;;;;;;;14.07;9.97;;;;;;;0.22;100.00;98824.31;5021867;28;20747;-78
2021/11/28 01:53:02;;;;;;;16.57;9.53;;;;;;;0.23;100.00;98832.84;5018398;28;20243;-78
2021/11/28 01:55:31;;;;;;;12.30;8.17;;;;;;;0.24;100.00;98845.66;5021546;28;20326;-77
2021/11/28 01:58:00;;;;;;;15.57;10.13;;;;;;;0.25;100.00;98844.81;5017766;28;20204;-77
2021/11/28 02:00:30;;;;;;;15.10;9.33;;;;;;;0.26;100.00;98843.91;5021546;28;20237;-77
2021/11/28 02:02:59;;;;;;;16.00;9.73;;;;;;;0.23;100.00;98836.28;5016317;28;20877;-78
2021/11/28 02:05:29;;;;;;;14.50;9.13;;;;;;;0.25;100.00;98834.53;5021911;28;20211;-78
2021/11/28 02:07:56;;;;;;;12.80;8.27;;;;;;;0.25;100.00;98829.41;5019385;28;20903;-78
2021/11/28 02:10:23;;;;;;;15.80;9.67;;;;;;;0.27;100.00;98824.28;5016224;28;20211;-78
2021/11/28 02:12:50;;;;;;;14.83;9.30;;;;;;;0.31;100.00;98826.75;5015738;28;20582;-78
2021/11/28 02:15:19;;;;;;;13.63;9.17;;;;;;;0.33;100.00;98829.31;5016807;28;20278;-77
2021/11/28 02:17:51;;;;;;;14.60;9.30;;;;;;;0.35;100.00;98823.31;5020504;28;20207;-77
2021/11/28 02:20:20;;;;;;;16.03;10.20;;;;;;;0.36;100.00;98813.88;5020684;28;20666;-77
2021/11/28 02:22:49;;;;;;;14.63;9.37;;;;;;;0.34;100.00;98813.91;5019647;28;20227;-79
2021/11/28 02:25:15;;;;;;;15.03;9.60;;;;;;;0.38;100.00;98807.84;5018783;28;20198;-79
2021/11/28 02:27:42;;;;;;;14.10;9.33;;;;;;;0.38;100.00;98810.41;5023372;28;20305;-79
2021/11/28 02:30:11;;;;;;;14.63;9.77;;;;;;;0.38;100.00;98815.56;5023431;28;20202;-79
2021/11/28 02:32:40;;;;;;;13.70;8.90;;;;;;;0.40;100.00;98815.53;5013305;28;20224;-79
2021/11/28 02:35:07;;;;;;;16.20;10.57;;;;;;;0.35;100.00;98812.19;5021223;28;20222;-79
2021/11/28 02:37:33;;;;;;;16.40;10.50;;;;;;;0.32;100.00;98817.38;5035240;28;20894;-80
2021/11/28 02:40:10;;;;;;;14.53;9.93;;;;;;;0.31;100.00;98813.09;5016284;28;20307;-79
2021/11/28 02:42:37;;;;;;;15.07;9.63;;;;;;;0.32;100.00;98804.56;5036868;28;20312;-79
2021/11/28 02:45:04;;;;;;;26.57;15.30;;;;;;;0.29;100.00;98815.69;5020993;28;20254;-80
2021/11/28 02:47:31;;;;;;;31.87;18.23;;;;;;;0.26;100.00;98813.16;5020363;28;20758;-79
2021/11/28 02:49:57;;;;;;;25.80;15.77;;;;;;;0.23;100.00;98799.53;5019362;28;20204;-80
2021/11/28 02:52:26;;;;;;;20.90;12.33;;;;;;;0.20;100.00;98800.44;5021344;28;20234;-78
2021/11/28 02:54:53;;;;;;;16.20;10.53;;;;;;;0.14;100.00;98791.13;5017943;28;20215;-78
2021/11/28 02:57:21;;;;;;;16.47;10.53;;;;;;;0.11;100.00;98783.47;5018348;28;20253;-78
2021/11/28 02:59:48;;;;;;;16.53;10.20;;;;;;;0.04;100.00;98774.16;5017243;28;20219;-78
2021/11/28 03:02:14;;;;;;;14.90;9.20;;;;;;;-0.05;100.00;98772.56;5018022;28;20259;-78
2021/11/28 03:04:54;;;;;;;14.17;9.60;;;;;;;-0.15;100.00;98770.97;5017895;28;20219;-78
2021/11/28 03:07:21;;;;;;;12.10;8.67;;;;;;;-0.25;100.00;98762.53;5015908;28;20320;-78
2021/11/28 03:09:47;;;;;;;13.73;8.53;;;;;;;-0.24;100.00;98764.25;5020492;28;20200;-78
2021/11/28 03:12:14;;;;;;;15.03;8.97;;;;;;;-0.38;100.00;98766.13;5022268;28;20687;-77
2021/11/28 03:14:42;;;;;;;12.63;8.60;;;;;;;-0.44;100.00;98769.63;5016821;28;20204;-78
2021/11/28 03:17:09;;;;;;;12.23;8.03;;;;;;;-0.48;100.00;98765.38;5021335;28;20215;-78
2021/11/28 03:19:35;;;;;;;12.27;8.23;;;;;;;-0.51;100.00;98769.69;5019321;28;20212;-77
2021/11/28 03:22:04;;;;;;;13.13;8.23;;;;;;;-0.62;100.00;98767.25;5019619;28;20580;-77
2021/11/28 03:24:30;;;;;;;13.50;9.10;;;;;;;-0.78;100.00;98764.81;5018430;28;20208;-77
2021/11/28 03:26:57;;;;;;;13.20;8.43;;;;;;;-0.72;100.00;98775.88;5018729;28;20258;-77
2021/11/28 03:29:26;;;;;;;11.87;8.33;;;;;;;-0.74;100.00;98775.03;5017984;28;20888;-77
2021/11/28 03:32:09;;;;;;;11.87;7.90;;;;;;;-0.80;100.00;98770.84;5020225;28;20692;-77
2021/11/28 03:34:55;;;;;;;12.37;8.17;;;;;;;-0.92;100.00;98787.16;5014994;28;20223;-77
2021/11/28 03:37:25;;;;;;;12.80;8.47;;;;;;;-1.01;100.00;98787.22;5023383;28;20291;-77
2021/11/28 03:39:52;;;;;;;13.50;8.57;;;;;;;-1.03;100.00;98792.34;5019019;28;20231;-77
2021/11/28 03:42:26;;;;;;;12.97;8.30;;;;;;;-1.13;100.00;98802.69;5025177;28;20230;-77
2021/11/28 03:44:53;;;;;;;11.87;7.53;;;;;;;-1.13;100.00;98800.13;5020515;28;20287;-77
2021/11/28 03:47:21;;;;;;;13.53;8.43;;;;;;;-1.10;100.00;98795.00;5022799;28;20221;-76
2021/11/28 03:49:55;;;;;;;13.00;8.53;;;;;;;-1.13;100.00;98798.41;5021491;28;20222;-77
2021/11/28 03:52:22;;;;;;;15.50;9.13;;;;;;;-1.18;100.00;98798.47;5024834;28;20231;-77
2021/11/28 03:54:48;;;;;;;14.17;8.43;;;;;;;-1.27;100.00;98805.34;5018836;28;20319;-77
2021/11/28 03:57:19;;;;;;;14.00;8.57;;;;;;;-1.31;100.00;98811.34;5017920;28;20216;-77
2021/11/28 03:59:45;;;;;;;15.87;9.53;;;;;;;-1.45;100.00;98804.59;5022652;28;20233;-77
2021/11/28 04:02:12;;;;;;;15.03;10.27;;;;;;;-1.47;100.00;98813.16;5018765;28;20270;-76
2021/11/28 04:04:40;;;;;;;19.10;10.03;;;;;;;-1.55;100.00;98814.06;5020946;28;20268;-77
2021/11/28 04:07:12;;;;;;;17.07;10.23;;;;;;;-1.55;100.00;98815.75;5027199;28;20222;-77
2021/11/28 04:09:41;;;;;;;15.93;9.97;;;;;;;-1.71;100.00;98809.88;5035091;28;20816;-77
2021/11/28 04:12:09;;;;;;;16.87;10.20;;;;;;;-1.71;100.00;98809.88;5020553;28;20224;-77
2021/11/28 04:14:38;;;;;;;16.23;9.53;;;;;;;-1.66;100.00;98812.41;5021204;28;20210;-77
2021/11/28 04:17:04;;;;;;;19.20;10.20;;;;;;;-1.76;100.00;98809.03;5020618;28;20287;-77
2021/11/28 04:19:35;;;;;;;14.87;9.90;;;;;;;-1.74;100.00;98815.88;5016841;28;20275;-76
2021/11/28 04:22:03;;;;;;;15.77;8.73;;;;;;;-1.72;100.00;98818.41;5019591;28;20819;-76
2021/11/28 04:24:32;;;;;;;15.70;9.23;;;;;;;-1.80;100.00;98826.09;5019585;28;20231;-76
2021/11/28 04:26:59;;;;;;;15.40;9.87;;;;;;;-1.74;100.00;98832.91;5015562;28;20318;-77
2021/11/28 04:29:26;;;;;;;14.63;8.67;;;;;;;-1.70;100.00;98836.28;5019998;28;20239;-76
2021/11/28 04:31:54;;;;;;;15.73;8.70;;;;;;;-1.85;100.00;98834.66;5020762;28;20204;-78
2021/11/28 04:34:21;;;;;;;15.83;9.03;;;;;;;-1.79;100.00;98844.84;5019695;28;20475;-78
2021/11/28 04:36:47;;;;;;;14.63;8.97;;;;;;;-1.84;100.00;98834.66;5017776;28;20263;-77
2021/11/28 04:39:16;;;;;;;18.93;10.87;;;;;;;-1.93;100.00;98834.69;5020549;28;20215;-77
2021/11/28 04:41:43;;;;;;;16.03;9.57;;;;;;;-1.97;100.00;98838.09;5015798;28;20211;-77
2021/11/28 04:44:10;;;;;;;18.63;10.30;;;;;;;-1.97;100.00;98838.09;5023161;28;20475;-77
2021/11/28 04:47:01;;;;;;;17.97;10.23;;;;;;;-2.10;100.00;98834.75;5020799;28;20480;-78
2021/11/28 04:49:29;;;;;;;16.47;10.10;;;;;;;-2.12;100.00;98824.53;5020140;28;20662;-78
2021/11/28 04:51:55;;;;;;;15.97;10.37;;;;;;;-2.19;100.00;98824.56;5022647;28;20199;-77
2021/11/28 04:54:25;;;;;;;19.37;10.80;;;;;;;-2.09;100.00;98836.47;5017028;28;20451;-77
2021/11/28 04:56:51;;;;;;;16.67;9.70;;;;;;;-2.00;100.00;98845.78;5022062;28;20496;-77
2021/11/28 04:59:18;;;;;;;16.10;9.70;;;;;;;-1.96;100.00;98858.53;5017649;28;20769;-76
2021/11/28 05:01:44;;;;;;;18.60;9.93;;;;;;;-1.89;100.00;98861.91;5024844;28;20465;-77
2021/11/28 05:04:17;;;;;;;16.43;9.80;;;;;;;-1.95;100.00;98856.84;5023762;28;20203;-76
2021/11/28 05:06:47;;;;;;;16.60;9.47;;;;;;;-1.92;100.00;98856.81;5022984;28;20522;-77
2021/11/28 05:09:19;;;;;;;17.90;10.10;;;;;;;-1.87;100.00;98864.47;5022973;28;20540;-77
2021/11/28 05:11:47;;;;;;;18.17;10.17;;;;;;;-1.85;100.00;98860.19;5029469;28;20295;-77
2021/11/28 05:14:14;;;;;;;15.27;9.37;;;;;;;-1.95;100.00;98855.13;5024697;28;20452;-76
2021/11/28 05:16:43;;;;;;;16.33;9.47;;;;;;;-1.95;100.00;98865.34;5030722;28;20445;-77
2021/11/28 05:19:20;;;;;;;18.20;8.97;;;;;;;-1.95;100.00;98860.25;5024774;28;20902;-77
2021/11/28 05:22:09;;;;;;;16.93;9.70;;;;;;;-1.91;100.00;98856.81;5029904;28;20471;-77
2021/11/28 05:24:39;;;;;;;16.57;9.67;;;;;;;-1.84;100.00;98859.34;5024854;28;20216;-77
2021/11/28 05:27:07;;;;;;;18.83;10.53;;;;;;;-1.95;100.00;98860.25;5024323;28;20253;-75
2021/11/28 05:29:34;;;;;;;21.67;11.30;;;;;;;-1.87;100.00;98862.75;5027188;28;20500;-77
2021/11/28 05:32:01;;;;;;;18.40;9.90;;;;;;;-1.86;100.00;98867.03;5041889;28;20450;-77
2021/11/28 05:34:46;;;;;;;22.33;11.30;;;;;;;-1.94;100.00;98867.03;5024808;28;21180;-77
2021/11/28 05:37:26;;;;;;;16.43;9.53;;;;;;;-1.89;100.00;98861.06;5025716;28;20471;-77
2021/11/28 05:40:10;;;;;;;19.20;10.77;;;;;;;-2.00;100.00;98866.22;5021787;28;20207;-77
2021/11/28 05:42:38;;;;;;;19.30;10.03;;;;;;;-1.87;100.00;98867.88;5019484;28;20576;-77
2021/11/28 05:45:07;;;;;;;17.33;9.50;;;;;;;-1.99;100.00;98873.84;5027768;28;20465;-77
2021/11/28 05:47:45;;;;;;;17.73;9.33;;;;;;;-2.08;100.00;98867.94;5021824;28;20534;-76
2021/11/28 05:50:35;;;;;;;15.60;9.23;;;;;;;-2.13;100.00;98861.16;5030478;28;20551;-77
2021/11/28 05:53:01;;;;;;;18.33;9.90;;;;;;;-2.18;100.00;98867.97;5024597;28;20527;-77
2021/11/28 05:55:28;;;;;;;16.10;9.23;;;;;;;-2.17;100.00;98862.00;5019271;28;21109;-77
2021/11/28 05:57:58;;;;;;;15.50;9.50;;;;;;;-2.14;100.00;98861.16;5025197;28;20466;-77
2021/11/28 06:00:25;;;;;;;19.67;10.67;;;;;;;-2.22;100.00;98852.66;5021285;28;20467;-77
2021/11/28 06:02:52;;;;;;;16.30;9.93;;;;;;;-2.44;100.00;98856.97;5019800;28;20492;-76
2021/11/28 06:05:37;;;;;;;17.23;9.37;;;;;;;-2.52;100.00;98852.72;5024458;28;20477;-76
2021/11/28 06:08:14;;;;;;;15.77;9.80;;;;;;;-2.45;100.00;98845.91;5021250;28;20470;-76
2021/11/28 06:10:44;;;;;;;16.77;9.27;;;;;;;-2.76;100.00;98850.19;5022902;28;20466;-77
2021/11/28 06:13:12;;;;;;;17.80;10.00;;;;;;;-2.68;100.00;98849.34;5022786;28;20482;-78
2021/11/28 06:15:43;;;;;;;15.70;9.70;;;;;;;-2.75;100.00;98846.81;5013136;28;20510;-78
2021/11/28 06:18:33;;;;;;;15.33;9.50;;;;;;;-2.71;100.00;98846.81;5019474;28;20983;-78
2021/11/28 06:21:18;;;;;;;52.27;21.43;;;;;;;-2.77;100.00;98846.81;5022260;28;20499;-79
2021/11/28 06:23:56;;;;;;;28.73;14.83;;;;;;;-2.77;100.00;98843.41;5020706;28;20490;-79
2021/11/28 06:26:23;;;;;;;50.27;21.23;;;;;;;-2.57;100.00;98841.69;5021409;28;20871;-78
2021/11/28 06:28:51;;;;;;;35.13;16.70;;;;;;;-2.68;100.00;98839.13;5018118;28;20488;-78
2021/11/28 06:31:17;;;;;;;24.67;13.87;;;;;;;-2.72;100.00;98840.00;5021278;28;20875;-78
2021/11/28 06:34:16;;;;;;;27.17;13.00;;;;;;;-2.72;100.00;98845.09;5023289;28;20663;-78
2021/11/28 06:37:12;;;;;;;30.93;13.27;;;;;;;-2.84;100.00;98845.09;5020227;28;20457;-76
2021/11/28 06:39:57;;;;;;;29.53;14.97;;;;;;;-2.78;100.00;98846.78;5019021;28;20518;-76
2021/11/28 06:42:32;;;;;;;30.83;14.73;;;;;;;-2.70;100.00;98845.09;5017332;28;20575;-76
2021/11/28 06:45:00;;;;;;;25.30;13.67;;;;;;;-2.74;100.00;98851.06;5015356;28;21010;-77
2021/11/28 06:47:28;;;;;;;34.13;16.20;;;;;;;-2.71;100.00;98857.00;5019026;28;20513;-76
2021/11/28 06:49:54;;;;;;;31.50;14.83;;;;;;;-2.93;100.00;98858.72;5017490;28;21332;-76
2021/11/28 06:52:43;;;;;;;24.77;12.90;;;;;;;-2.90;100.00;98862.97;5019763;28;20498;-77
2021/11/28 06:55:45;;;;;;;23.30;12.17;;;;;;;-2.87;100.00;98860.41;5023328;28;20468;-76
2021/11/28 06:58:38;;;;;;;18.30;10.70;;;;;;;-2.79;100.00;98856.16;5015239;28;20470;-76
2021/11/28 07:01:06;;;;;;;22.77;12.07;;;;;;;-2.77;100.00;98851.06;5018194;28;20510;-76
2021/11/28 07:03:32;;;;;;;20.77;11.47;;;;;;;-2.81;100.00;98847.66;5019719;28;20603;-78
2021/11/28 07:06:27;;;;;;;17.97;10.40;;;;;;;-2.82;100.00;98840.84;5022453;28;20490;-78
2021/11/28 07:08:56;;;;;;;19.17;11.57;;;;;;;-2.69;100.00;98829.78;5023058;28;20576;-79
2021/11/28 07:11:23;;;;;;;28.10;13.37;;;;;;;-2.74;100.00;98833.22;5029448;28;20455;-78
2021/11/28 07:13:51;;;;;;;23.83;12.53;;;;;;;-2.70;100.00;98833.19;5025968;28;20469;-78
2021/11/28 07:16:19;;;;;;;27.47;13.10;;;;;;;-2.61;100.00;98839.13;5021705;28;20468;-76
2021/11/28 07:18:46;;;;;;;25.13;12.63;;;;;;;-2.59;100.00;98845.09;5025305;28;20490;-76
2021/11/28 07:21:13;;;;;;;26.53;13.83;;;;;;;-2.82;100.00;98852.75;5021781;28;20481;-76
2021/11/28 07:23:46;;;;;;;24.03;12.50;;;;;;;-2.75;100.00;98857.84;5022240;28;20484;-76
2021/11/28 07:26:13;;;;;;;26.03;15.73;;;;;;;-2.71;100.00;98861.25;5022470;28;20469;-76
2021/11/28 07:28:47;;;;;;;20.40;11.90;;;;;;;-2.80;100.00;98863.81;5020357;28;20528;-77
2021/11/28 07:31:15;;;;;;;20.00;11.37;;;;;;;-2.80;100.00;98863.81;5025233;28;20464;-76
2021/11/28 07:34:06;;;;;;;23.50;11.57;;;;;;;-2.72;100.00;98865.50;5020748;28;21022;-77
2021/11/28 07:36:53;;;;;;;22.60;11.60;;;;;;;-2.69;100.00;98870.63;5018412;28;20468;-77
2021/11/28 07:39:21;;;;;;;22.00;10.37;;;;;;;-2.64;100.00;98870.59;5037918;28;20475;-77
2021/11/28 07:41:51;;;;;;;23.00;10.93;;;;;;;-2.60;100.00;98876.53;5020894;28;20466;-77
2021/11/28 07:44:53;;;;;;;19.37;10.90;;;;;;;-2.52;100.00;98875.69;4984251;28;20468;-76
2021/11/28 07:47:38;;;;;;;21.93;11.43;;;;;;;-2.41;100.00;98877.38;5016101;28;20463;-77
2021/11/28 07:50:17;;;;;;;22.10;12.10;;;;;;;-2.30;100.00;98888.44;5020214;28;20572;-77
2021/11/28 07:52:46;;;;;;;25.90;14.30;;;;;;;-2.20;100.00;98894.34;5020782;28;20554;-77
2021/11/28 07:55:19;;;;;;;28.00;15.57;;;;;;;-2.11;100.00;98896.88;5019277;28;20851;-77
2021/11/28 07:57:57;;;;;;;30.67;15.07;;;;;;;-2.22;100.00;98912.22;5026048;28;20552;-77
2021/11/28 08:00:44;;;;;;;29.97;15.03;;;;;;;-2.31;100.00;98908.00;5021365;28;20710;-77
2021/11/28 08:03:26;;;;;;;35.47;16.80;;;;;;;-2.32;100.00;98913.13;5017501;28;21038;-76
2021/11/28 08:06:12;;;;;;;34.73;16.13;;;;;;;-2.21;100.00;98920.75;5020945;28;20899;-77
2021/11/28 08:08:56;;;;;;;34.63;16.40;;;;;;;-2.14;100.00;98920.72;5034421;28;20458;-77
2021/11/28 08:11:40;;;;;;;30.43;15.40;;;;;;;-2.16;100.00;98919.91;5021416;28;20454;-77
2021/11/28 08:14:06;;;;;;;37.80;19.63;;;;;;;-2.03;100.00;98919.88;5018718;28;20494;-77
2021/11/28 08:16:34;;;;;;;39.77;19.70;;;;;;;-1.97;100.00;98920.72;5020225;28;20470;-77
2021/11/28 08:19:00;;;;;;;40.30;21.10;;;;;;;-1.91;100.00;98923.22;5019533;28;20470;-77
2021/11/28 08:21:28;;;;;;;39.23;19.00;;;;;;;-1.80;100.00;98910.41;5019952;28;20226;-77
2021/11/28 08:23:54;;;;;;;31.97;17.77;;;;;;;-1.75;100.00;98918.91;5019272;28;20488;-77
2021/11/28 08:26:21;;;;;;;39.53;17.50;;;;;;;-1.74;100.00;98920.63;5023139;28;20482;-77
2021/11/28 08:28:47;;;;;;;30.63;15.73;;;;;;;-1.78;100.00;98929.13;5019178;28;20204;-77
2021/11/28 08:31:14;;;;;;;27.37;12.90;;;;;;;-1.67;100.00;98930.81;5021313;28;20220;-77
2021/11/28 08:33:59;;;;;;;27.87;12.90;;;;;;;-1.56;100.00;98929.09;5023210;28;20761;-77
2021/11/28 08:36:36;;;;;;;32.03;14.10;;;;;;;-1.47;100.00;98934.16;5015714;28;20211;-77
2021/11/28 08:39:03;;;;;;;35.00;15.77;;;;;;;-1.41;100.00;98929.00;5018060;28;20203;-77
2021/11/28 08:41:29;;;;;;;30.97;14.37;;;;;;;-1.38;100.00;98926.44;5020616;28;20214;-77
2021/11/28 08:43:56;;;;;;;26.27;13.87;;;;;;;-1.42;100.00;98931.59;5022243;28;20220;-77
2021/11/28 08:46:24;;;;;;;32.07;14.03;;;;;;;-1.31;100.00;98931.53;5019678;28;20242;-77
2021/11/28 08:48:53;;;;;;;29.73;15.03;;;;;;;-1.28;100.00;98931.53;5020252;28;20210;-77
2021/11/28 08:51:22;;;;;;;30.67;13.63;;;;;;;-1.23;100.00;98934.88;5019646;28;20263;-77
2021/11/28 08:53:49;;;;;;;29.73;15.87;;;;;;;-1.17;100.00;98932.28;5019590;28;20584;-77
2021/11/28 08:56:16;;;;;;;35.80;16.93;;;;;;;-1.24;100.00;98928.91;5015514;28;20211;-77
2021/11/28 08:58:45;;;;;;;36.10;16.13;;;;;;;-1.09;100.00;98934.81;5023383;28;20733;-77
2021/11/28 09:01:12;;;;;;;37.80;17.20;;;;;;;-0.99;100.00;98937.28;5020418;28;20200;-77
2021/11/28 09:03:38;;;;;;;37.73;17.63;;;;;;;-0.97;100.00;98944.97;5022405;28;20310;-77
2021/11/28 09:06:04;;;;;;;42.03;18.00;;;;;;;-0.96;100.00;98944.94;5022015;28;20209;-77
2021/11/28 09:08:31;;;;;;;38.00;18.50;;;;;;;-0.91;100.00;98950.06;5019222;28;20295;-77
2021/11/28 09:10:59;;;;;;;45.87;20.27;;;;;;;-0.87;100.00;98950.88;5018006;28;20219;-77
2021/11/28 09:13:25;;;;;;;37.57;19.17;;;;;;;-0.89;100.00;98950.88;5019303;28;20228;-77
2021/11/28 09:15:52;;;;;;;38.47;19.97;;;;;;;-0.80;100.00;98952.53;5019832;28;20383;-77
2021/11/28 09:18:21;;;;;;;36.17;19.13;;;;;;;-0.83;100.00;98955.09;5022985;28;20239;-77
2021/11/28 09:20:51;;;;;;;35.93;18.27;;;;;;;-0.80;100.00;98950.81;5020704;28;20203;-77
2021/11/28 09:26:05;;;;;;;54.80;25.23;;;;;;;-0.77;100.00;98942.28;4993474;28;20209;-79
2021/11/28 09:28:31;;;;;;;54.03;25.80;;;;;;;-0.77;100.00;98939.72;5019253;28;20232;-78
2021/11/28 09:30:58;;;;;;;65.37;30.53;;;;;;;-0.73;100.00;98938.00;5021566;28;20232;-76
2021/11/28 09:33:24;;;;;;;62.13;29.60;;;;;;;-0.68;100.00;98934.53;5020352;28;20227;-76
2021/11/28 09:35:50;;;;;;;49.17;26.17;;;;;;;-0.63;100.00;98937.91;5014433;28;20680;-80
2021/11/28 09:38:17;;;;;;;45.23;23.43;;;;;;;-0.58;100.00;98933.59;5020413;28;20220;-77
2021/11/28 09:40:45;;;;;;;40.33;19.63;;;;;;;-0.60;100.00;98937.03;5017421;28;21055;-77
2021/11/28 09:43:15;;;;;;;41.73;21.10;;;;;;;-0.58;100.00;98925.94;5018578;28;20224;-77
2021/11/28 09:45:45;;;;;;;33.67;16.60;;;;;;;-0.59;100.00;98924.22;5017492;28;20686;-77
2021/11/28 09:48:11;;;;;;;39.63;16.90;;;;;;;-0.54;100.00;98918.22;5021314;28;20209;-76
2021/11/28 09:50:39;;;;;;;30.23;16.40;;;;;;;-0.51;100.00;98908.81;5019177;28;20219;-76
2021/11/28 09:53:06;;;;;;;36.57;17.40;;;;;;;-0.52;100.00;98903.69;5020846;28;20223;-77
2021/11/28 09:55:33;;;;;;;31.77;15.93;;;;;;;-0.45;100.00;98902.78;5021121;28;20207;-77
2021/11/28 09:58:00;;;;;;;30.57;16.73;;;;;;;-0.42;100.00;98901.03;5022034;28;20285;-77
2021/11/28 10:00:27;;;;;;;35.40;18.60;;;;;;;-0.38;100.00;98901.84;5017811;28;20251;-77
2021/11/28 10:02:54;;;;;;;34.60;18.00;;;;;;;-0.34;100.00;98898.41;5019305;28;20228;-77
2021/11/28 10:05:20;;;;;;;30.93;15.87;;;;;;;-0.34;100.00;98895.00;5020471;28;20197;-77
2021/11/28 10:07:49;;;;;;;29.40;15.37;;;;;;;-0.28;100.00;98900.03;5015645;28;20204;-77
2021/11/28 10:10:17;;;;;;;30.73;15.43;;;;;;;-0.29;100.00;98885.56;5012694;28;20601;-77
2021/11/28 10:12:45;;;;;;;25.27;14.57;;;;;;;-0.30;100.00;98894.97;5022830;28;20224;-77
2021/11/28 10:15:14;;;;;;;28.33;14.57;;;;;;;-0.27;100.00;98892.34;5018213;28;20214;-77
2021/11/28 10:17:42;;;;;;;27.60;15.00;;;;;;;-0.17;100.00;98893.13;5020519;28;20213;-77
2021/11/28 10:20:11;;;;;;;45.10;21.77;;;;;;;-0.17;100.00;98893.13;5017988;28;20299;-77
2021/11/28 10:22:38;;;;;;;42.30;20.13;;;;;;;-0.10;100.00;98881.09;5013686;28;20228;-77
2021/11/28 10:25:11;;;;;;;51.17;21.67;;;;;;;-0.13;100.00;98876.00;5017831;28;20211;-77
2021/11/28 10:27:42;;;;;;;41.87;20.13;;;;;;;-0.02;100.00;98876.72;5017268;28;20205;-77
2021/11/28 10:30:11;;;;;;;50.67;22.77;;;;;;;0.07;100.00;98874.06;5010069;28;20623;-77
2021/11/28 10:32:44;;;;;;;49.93;23.43;;;;;;;0.03;100.00;98869.00;5015420;28;20293;-78
2021/11/28 10:35:12;;;;;;;63.63;27.37;;;;;;;0.07;100.00;98874.06;5017850;28;20720;-78
2021/11/28 10:37:44;;;;;;;49.10;23.67;;;;;;;0.12;100.00;98885.13;5017307;28;20713;-78
2021/11/28 10:40:12;;;;;;;31.43;17.37;;;;;;;0.25;100.00;98882.41;5019134;28;20215;-78
2021/11/28 10:42:39;;;;;;;27.40;15.83;;;;;;;0.22;100.00;98878.16;5019372;28;20253;-77
2021/11/28 10:45:10;;;;;;;25.47;14.20;;;;;;;0.27;100.00;98878.94;5018674;28;20212;-77
2021/11/28 10:47:40;;;;;;;25.33;12.87;;;;;;;0.31;100.00;98880.59;5014946;28;20200;-77
2021/11/28 10:50:18;;;;;;;23.13;12.87;;;;;;;0.34;100.00;98875.44;5016612;28;20215;-78
2021/11/28 10:52:47;;;;;;;26.83;13.43;;;;;;;0.38;100.00;98879.66;5016469;28;20224;-78
2021/11/28 10:55:17;;;;;;;22.63;12.87;;;;;;;0.46;100.00;98883.84;5016039;28;20201;-78
2021/11/28 10:57:43;;;;;;;27.00;13.73;;;;;;;0.38;100.00;98887.34;5019334;28;20208;-77
2021/11/28 11:00:12;;;;;;;22.83;13.77;;;;;;;0.43;100.00;98896.72;5021120;28;20203;-78
2021/11/28 11:02:41;;;;;;;35.57;18.13;;;;;;;0.55;100.00;98902.53;5018260;28;20545;-78
2021/11/28 11:05:11;;;;;;;24.30;13.70;;;;;;;0.61;100.00;98905.88;5019102;28;20229;-78
2021/11/28 11:07:45;;;;;;;24.10;13.80;;;;;;;0.60;100.00;98905.03;5015798;28;20243;-78
2021/11/28 11:10:18;;;;;;;25.00;12.90;;;;;;;0.61;100.00;98911.00;5014852;28;20265;-78
2021/11/28 11:12:44;;;;;;;24.07;12.30;;;;;;;0.62;100.00;98916.13;5016240;28;20233;-77
2021/11/28 11:15:15;;;;;;;20.47;11.57;;;;;;;0.52;100.00;98907.69;5019165;28;20560;-78
2021/11/28 11:17:56;;;;;;;21.97;11.43;;;;;;;0.59;100.00;98892.25;5016147;28;20246;-78
2021/11/28 11:20:27;;;;;;;22.50;11.10;;;;;;;0.61;100.00;98893.06;5018419;28;20442;-78
2021/11/28 11:22:55;;;;;;;18.60;10.60;;;;;;;0.65;100.00;98890.44;5016788;28;20333;-78
2021/11/28 11:25:30;;;;;;;20.30;10.77;;;;;;;0.56;100.00;98891.41;5016732;28;20219;-77
2021/11/28 11:28:08;;;;;;;21.30;11.60;;;;;;;0.70;100.00;98890.34;5014016;28;20200;-78
2021/11/28 11:30:35;;;;;;;23.53;12.20;;;;;;;0.68;100.00;98894.66;5013634;28;20644;-78
2021/11/28 11:33:01;;;;;;;20.27;13.00;;;;;;;0.61;100.00;98893.91;5015890;28;20227;-78
2021/11/28 11:35:31;;;;;;;20.23;12.20;;;;;;;0.56;100.00;98893.97;5013393;28;20207;-77